createdAt,value
2019-05-26T00:00:10.546Z,94.40
2019-05-26T00:02:40.040Z,95.00
2019-05-26T00:05:10.275Z,95.10
2019-05-26T00:07:39.751Z,94.80
2019-05-26T00:10:10.331Z,94.90
2019-05-26T00:12:40.026Z,94.80
2019-05-26T00:15:10.058Z,94.70
2019-05-26T00:17:39.483Z,94.90
2019-05-26T00:20:10.417Z,94.60
2019-05-26T00:22:39.833Z,95.00
2019-05-26T00:25:09.858Z,94.70
2019-05-26T00:27:39.214Z,94.60
2019-05-26T00:30:09.475Z,94.50
2019-05-26T00:32:38.989Z,93.90
2019-05-26T00:35:08.926Z,93.10
2019-05-26T00:37:49.222Z,93.10
2019-05-26T00:40:10.255Z,92.90
2019-05-26T00:42:39.654Z,93.10
2019-05-26T00:45:09.986Z,93.00
2019-05-26T00:47:39.340Z,93.20
2019-05-26T00:50:09.399Z,94.20
2019-05-26T00:52:38.815Z,93.60
2019-05-26T00:55:09.386Z,94.30
2019-05-26T00:57:38.890Z,93.60
2019-05-26T01:00:11.409Z,93.60
2019-05-26T01:02:40.885Z,93.70
2019-05-26T01:05:10.835Z,93.60
2019-05-26T01:07:40.188Z,93.10
2019-05-26T01:10:10.314Z,93.20
2019-05-26T01:12:39.738Z,93.10
2019-05-26T01:15:09.871Z,93.90
2019-05-26T01:17:39.362Z,94.40
2019-05-26T01:20:09.240Z,93.90
2019-05-26T01:22:38.649Z,94.20
2019-05-26T01:25:09.387Z,93.60
2019-05-26T01:27:38.798Z,94.00
2019-05-26T01:30:09.490Z,94.40
2019-05-26T01:32:38.895Z,94.50
2019-05-26T01:35:08.595Z,94.90
2019-05-26T01:37:39.629Z,94.80
2019-05-26T01:40:10.725Z,94.90
2019-05-26T01:42:40.064Z,94.80
2019-05-26T01:45:09.736Z,95.30
2019-05-26T01:47:39.121Z,93.90
2019-05-26T01:50:09.415Z,94.60
2019-05-26T01:52:38.748Z,94.80
2019-05-26T01:55:08.242Z,95.20
2019-05-26T01:57:37.551Z,95.40
2019-05-26T02:00:09.035Z,95.40
2019-05-26T02:02:38.388Z,94.90
2019-05-26T02:05:08.089Z,94.50
2019-05-26T02:07:37.427Z,94.60
2019-05-26T02:10:08.914Z,95.10
2019-05-26T02:12:38.230Z,95.00
2019-05-26T02:15:08.789Z,94.40
2019-05-26T02:17:38.195Z,94.60
2019-05-26T02:20:08.455Z,93.70
2019-05-26T02:22:37.837Z,93.80
2019-05-26T02:25:09.979Z,94.50
2019-05-26T02:27:39.315Z,94.70
2019-05-26T02:30:10.846Z,94.80
2019-05-26T02:32:40.485Z,93.80
2019-05-26T02:35:11.434Z,93.40
2019-05-26T02:37:40.776Z,93.70
2019-05-26T02:40:11.433Z,94.40
2019-05-26T02:42:40.845Z,95.00
2019-05-26T02:45:14.317Z,95.10
2019-05-26T02:47:44.591Z,95.20
2019-05-26T02:50:16.068Z,94.90
2019-05-26T02:52:45.445Z,94.90
2019-05-26T02:55:15.148Z,94.80
2019-05-26T02:57:44.556Z,94.50
2019-05-26T03:00:16.396Z,94.40
2019-05-26T03:02:46.089Z,94.40
2019-05-26T03:05:16.019Z,94.20
2019-05-26T03:07:45.472Z,94.50
2019-05-26T03:10:16.548Z,94.10
2019-05-26T03:12:47.580Z,94.40
2019-05-26T03:15:17.383Z,94.70
2019-05-26T03:17:48.630Z,94.70
2019-05-26T03:20:19.078Z,94.60
2019-05-26T03:22:50.346Z,94.50
2019-05-26T03:25:19.830Z,94.60
2019-05-26T03:27:49.286Z,94.50
2019-05-26T03:30:18.809Z,95.10
2019-05-26T03:32:48.116Z,95.00
2019-05-26T03:35:17.614Z,94.90
2019-05-26T03:37:46.933Z,94.60
2019-05-26T03:40:16.397Z,93.80
2019-05-26T03:42:45.721Z,94.20
2019-05-26T03:45:40.911Z,94.90
2019-05-26T03:48:10.351Z,94.90
2019-05-26T03:50:39.706Z,95.60
2019-05-26T03:53:09.018Z,95.60
2019-05-26T03:55:38.400Z,95.40
2019-05-26T03:58:07.733Z,95.20
2019-05-26T04:00:37.075Z,94.00
2019-05-26T04:03:06.411Z,94.00
2019-05-26T04:05:35.756Z,94.60
2019-05-26T04:08:05.725Z,94.70
2019-05-26T04:10:35.133Z,94.50
2019-05-26T04:13:04.468Z,94.60
2019-05-26T04:15:33.875Z,95.40
2019-05-26T04:18:03.204Z,95.60
2019-05-26T04:20:32.611Z,95.60
2019-05-26T04:23:02.014Z,95.60
2019-05-26T04:25:31.325Z,95.50
2019-05-26T04:28:00.689Z,95.70
2019-05-26T04:30:30.093Z,95.60
2019-05-26T04:32:59.444Z,95.00
2019-05-26T04:35:28.776Z,94.40
2019-05-26T04:37:58.187Z,93.70
2019-05-26T04:40:28.285Z,93.70
2019-05-26T04:42:57.840Z,93.20
2019-05-26T04:45:27.170Z,93.20
2019-05-26T04:47:56.521Z,93.90
2019-05-26T04:50:25.849Z,94.00
2019-05-26T04:53:05.916Z,93.80
2019-05-26T04:55:26.259Z,93.70
2019-05-26T04:57:55.613Z,94.10
2019-05-26T05:00:24.939Z,93.70
2019-05-26T05:02:54.266Z,93.80
2019-05-26T05:05:23.661Z,94.40
2019-05-26T05:07:53.010Z,94.60
2019-05-26T05:10:23.104Z,95.00
2019-05-26T05:12:53.007Z,94.50
2019-05-26T05:15:22.490Z,93.70
2019-05-26T05:17:51.906Z,93.80
2019-05-26T05:20:21.316Z,93.50
2019-05-26T05:22:50.656Z,93.50
2019-05-26T05:25:20.123Z,93.70
2019-05-26T05:27:49.564Z,93.80
2019-05-26T05:30:19.821Z,94.30
2019-05-26T05:32:49.212Z,94.10
2019-05-26T05:35:20.099Z,93.80
2019-05-26T05:37:49.507Z,93.90
2019-05-26T05:40:19.398Z,94.00
2019-05-26T05:42:48.749Z,93.90
2019-05-26T05:45:18.426Z,93.80
2019-05-26T05:47:47.903Z,93.70
2019-05-26T05:50:18.741Z,93.70
2019-05-26T05:52:48.113Z,94.00
2019-05-26T05:55:17.605Z,93.80
2019-05-26T05:57:47.000Z,93.10
2019-05-26T06:00:16.825Z,93.60
2019-05-26T06:02:46.183Z,93.10
2019-05-26T06:05:15.670Z,92.80
2019-05-26T06:07:45.031Z,92.80
2019-05-26T06:10:15.011Z,92.50
2019-05-26T06:12:44.363Z,92.40
2019-05-26T06:15:16.067Z,91.90
2019-05-26T06:17:45.203Z,92.30
2019-05-26T06:20:15.165Z,92.10
2019-05-26T06:22:44.514Z,91.70
2019-05-26T06:25:14.381Z,92.00
2019-05-26T06:27:43.726Z,91.90
2019-05-26T06:30:14.628Z,91.70
2019-05-26T06:32:43.951Z,91.40
2019-05-26T06:35:13.496Z,91.40
2019-05-26T06:37:42.858Z,91.30
2019-05-26T06:40:12.730Z,91.10
2019-05-26T06:42:42.057Z,90.90
2019-05-26T06:45:11.919Z,90.60
2019-05-26T06:47:41.233Z,90.90
2019-05-26T06:50:11.624Z,90.90
2019-05-26T06:52:40.963Z,90.70
2019-05-26T06:55:10.920Z,90.60
2019-05-26T06:57:40.243Z,90.60
2019-05-26T07:00:10.244Z,90.40
2019-05-26T07:02:39.568Z,90.00
2019-05-26T07:05:10.166Z,88.90
2019-05-26T07:07:45.314Z,89.00
2019-05-26T07:10:14.961Z,89.20
2019-05-26T07:12:44.294Z,88.70
2019-05-26T07:15:14.162Z,88.80
2019-05-26T07:17:43.487Z,88.80
2019-05-26T07:20:13.452Z,87.40
2019-05-26T07:22:42.770Z,88.30
2019-05-26T07:25:12.436Z,87.40
2019-05-26T07:27:41.782Z,87.60
2019-05-26T07:30:12.746Z,86.10
2019-05-26T07:32:42.102Z,85.30
2019-05-26T07:35:11.564Z,85.60
2019-05-26T07:37:40.890Z,84.00
2019-05-26T07:40:10.456Z,82.20
2019-05-26T07:42:39.794Z,80.00
2019-05-26T07:45:12.213Z,78.80
2019-05-26T07:47:41.531Z,78.60
2019-05-26T07:50:11.631Z,77.80
2019-05-26T07:52:41.314Z,78.30
2019-05-26T07:55:10.986Z,79.00
2019-05-26T07:57:40.299Z,79.10
2019-05-26T08:00:10.139Z,78.70
2019-05-26T08:02:39.462Z,79.00
2019-05-26T08:05:09.048Z,76.50
2019-05-26T08:07:38.379Z,75.10
2019-05-26T08:10:09.444Z,74.90
2019-05-26T08:12:38.753Z,73.70
2019-05-26T08:15:08.904Z,73.70
2019-05-26T08:17:38.222Z,74.20
2019-05-26T08:20:08.683Z,74.50
2019-05-26T08:22:38.167Z,76.20
2019-05-26T08:25:09.819Z,76.40
2019-05-26T08:27:39.137Z,74.40
2019-05-26T08:30:10.529Z,74.30
2019-05-26T08:32:39.853Z,72.70
2019-05-26T08:35:10.132Z,72.30
2019-05-26T08:37:39.510Z,71.10
2019-05-26T08:40:18.410Z,72.50
2019-05-26T08:42:50.496Z,71.50
2019-05-26T08:45:22.642Z,71.70
2019-05-26T08:47:56.841Z,70.20
2019-05-26T08:50:26.330Z,70.40
2019-05-26T08:56:22.153Z,71.40
2019-05-26T08:59:14.343Z,71.30
2019-05-26T09:01:46.770Z,68.80
2019-05-26T09:04:16.114Z,69.20
2019-05-26T09:06:45.457Z,69.50
2019-05-26T09:09:14.967Z,69.70
2019-05-26T09:11:44.420Z,70.00
2019-05-26T09:14:13.744Z,69.00
2019-05-26T09:16:43.087Z,68.90
2019-05-26T09:19:12.470Z,67.10
2019-05-26T09:21:41.813Z,73.10
2019-05-26T09:24:11.212Z,71.70
2019-05-26T09:26:41.491Z,66.10
2019-05-26T09:29:10.820Z,65.60
2019-05-26T09:31:40.287Z,65.20
2019-05-26T09:34:09.496Z,64.90
2019-05-26T09:36:38.910Z,63.70
2019-05-26T09:39:08.905Z,64.40
2019-05-26T09:41:38.249Z,65.00
2019-05-26T09:44:07.562Z,64.80
2019-05-26T09:46:36.907Z,66.50
2019-05-26T09:49:06.370Z,69.10
2019-05-26T09:51:35.743Z,66.80
2019-05-26T09:54:05.209Z,66.40
2019-05-26T09:56:34.566Z,63.00
2019-05-26T09:59:03.952Z,61.90
2019-05-26T10:01:33.329Z,62.20
2019-05-26T10:04:02.730Z,62.10
2019-05-26T10:06:32.075Z,62.70
2019-05-26T10:09:01.459Z,61.90
2019-05-26T10:11:30.827Z,60.50
2019-05-26T10:14:00.184Z,60.00
2019-05-26T10:16:29.502Z,59.70
2019-05-26T10:18:58.893Z,60.30
2019-05-26T10:21:28.238Z,59.20
2019-05-26T10:23:57.571Z,59.40
2019-05-26T10:26:26.913Z,60.50
2019-05-26T10:28:56.394Z,59.70
2019-05-26T10:31:25.735Z,57.50
2019-05-26T10:33:55.053Z,57.10
2019-05-26T10:36:24.832Z,58.00
2019-05-26T10:38:54.212Z,57.00
2019-05-26T10:41:23.550Z,57.40
2019-05-26T10:43:52.859Z,55.10
2019-05-26T10:46:22.206Z,56.30
2019-05-26T10:48:51.570Z,55.20
2019-05-26T10:51:20.913Z,55.70
2019-05-26T10:53:50.235Z,55.20
2019-05-26T10:56:19.602Z,57.70
2019-05-26T10:58:48.932Z,57.40
2019-05-26T11:01:18.321Z,57.10
2019-05-26T11:03:47.667Z,58.50
2019-05-26T11:06:17.003Z,58.90
2019-05-26T11:08:46.351Z,55.50
2019-05-26T11:11:15.791Z,56.10
2019-05-26T11:13:45.221Z,55.40
2019-05-26T11:16:14.561Z,54.80
2019-05-26T11:18:43.915Z,56.90
2019-05-26T11:21:13.273Z,56.70
2019-05-26T11:23:42.688Z,56.60
2019-05-26T11:26:12.013Z,57.10
2019-05-26T11:28:41.349Z,57.70
2019-05-26T11:31:10.734Z,57.60
2019-05-26T11:33:40.077Z,58.00
2019-05-26T11:36:09.463Z,58.20
2019-05-26T11:38:38.968Z,58.50
2019-05-26T11:41:08.367Z,56.40
2019-05-26T11:43:37.805Z,56.20
2019-05-26T11:46:07.265Z,52.20
2019-05-26T11:48:39.092Z,51.60
2019-05-26T11:51:07.851Z,47.70
2019-05-26T11:53:37.189Z,47.80
2019-05-26T11:56:06.506Z,47.40
2019-05-26T11:58:35.852Z,47.90
2019-05-26T12:01:05.360Z,50.20
2019-05-26T12:03:34.685Z,52.00
2019-05-26T12:06:04.067Z,49.70
2019-05-26T12:08:33.575Z,52.20
2019-05-26T12:11:02.902Z,51.10
2019-05-26T12:13:32.237Z,47.20
2019-05-26T12:16:01.552Z,48.30
2019-05-26T12:18:30.907Z,47.20
2019-05-26T12:21:00.219Z,47.60
2019-05-26T12:23:29.562Z,48.30
2019-05-26T12:25:58.895Z,49.60
2019-05-26T12:28:28.235Z,50.60
2019-05-26T12:30:57.587Z,51.00
2019-05-26T12:33:26.981Z,51.10
2019-05-26T12:35:56.300Z,52.80
2019-05-26T12:38:25.654Z,51.50
2019-05-26T12:40:55.050Z,49.50
2019-05-26T12:43:24.451Z,49.40
2019-05-26T12:45:53.774Z,49.20
2019-05-26T12:48:23.104Z,51.00
2019-05-26T12:50:52.431Z,51.10
2019-05-26T12:53:21.775Z,49.50
2019-05-26T12:55:51.111Z,50.20
2019-05-26T12:58:20.501Z,48.00
2019-05-26T13:00:54.638Z,47.10
2019-05-26T13:03:20.933Z,48.20
2019-05-26T13:05:50.260Z,46.70
2019-05-26T13:08:19.597Z,49.70
2019-05-26T13:10:48.926Z,49.60
2019-05-26T13:13:18.281Z,47.70
2019-05-26T13:15:47.590Z,46.30
2019-05-26T13:18:16.950Z,50.20
2019-05-26T13:20:46.342Z,47.20
2019-05-26T13:23:15.695Z,45.40
2019-05-26T13:25:45.603Z,46.20
2019-05-26T13:28:14.959Z,48.90
2019-05-26T13:30:44.356Z,47.50
2019-05-26T13:33:13.685Z,48.40
2019-05-26T13:35:43.026Z,47.90
2019-05-26T13:38:12.431Z,47.50
2019-05-26T13:40:41.777Z,45.60
2019-05-26T13:43:11.100Z,46.00
2019-05-26T13:45:40.442Z,46.70
2019-05-26T13:48:09.821Z,47.00
2019-05-26T13:50:39.160Z,45.90
2019-05-26T13:53:08.618Z,46.10
2019-05-26T13:55:37.995Z,45.80
2019-05-26T13:58:07.320Z,46.00
2019-05-26T14:00:36.733Z,44.80
2019-05-26T14:03:06.134Z,43.10
2019-05-26T14:05:35.491Z,42.60
2019-05-26T14:08:04.919Z,44.20
2019-05-26T14:10:36.869Z,42.60
2019-05-26T14:13:07.865Z,43.10
2019-05-26T14:15:39.207Z,43.50
2019-05-26T14:18:08.647Z,45.60
2019-05-26T14:20:42.422Z,46.00
2019-05-26T14:23:12.087Z,46.20
2019-05-26T14:25:41.489Z,44.50
2019-05-26T14:28:10.957Z,43.70
2019-05-26T14:30:40.365Z,43.70
2019-05-26T14:33:09.746Z,42.40
2019-05-26T14:35:39.165Z,43.60
2019-05-26T14:38:08.565Z,42.80
2019-05-26T14:40:38.361Z,41.40
2019-05-26T14:43:07.746Z,40.80
2019-05-26T14:45:51.973Z,42.50
2019-05-26T14:48:08.657Z,43.50
2019-05-26T14:50:40.588Z,44.20
2019-05-26T14:53:09.119Z,43.80
2019-05-26T14:55:38.530Z,42.10
2019-05-26T14:58:15.536Z,44.00
2019-05-26T15:00:39.059Z,42.80
2019-05-26T15:03:08.374Z,41.70
2019-05-26T15:05:37.775Z,41.40
2019-05-26T15:08:07.178Z,42.40
2019-05-26T15:10:36.540Z,43.20
2019-05-26T15:13:06.016Z,42.70
2019-05-26T15:15:35.388Z,42.30
2019-05-26T15:18:04.759Z,42.70
2019-05-26T15:20:34.173Z,41.80
2019-05-26T15:23:03.500Z,41.70
2019-05-26T15:25:32.976Z,40.30
2019-05-26T15:28:02.453Z,40.10
2019-05-26T15:30:32.031Z,40.90
2019-05-26T15:33:01.388Z,40.30
2019-05-26T15:35:30.774Z,40.90
2019-05-26T15:38:00.194Z,41.60
2019-05-26T15:40:29.566Z,41.90
2019-05-26T15:42:58.898Z,40.80
2019-05-26T15:45:28.310Z,40.40
2019-05-26T15:47:57.625Z,40.40
2019-05-26T15:50:28.700Z,39.90
2019-05-26T15:52:58.016Z,39.70
2019-05-26T15:55:27.440Z,39.40
2019-05-26T15:57:59.957Z,40.90
2019-05-26T16:00:29.360Z,39.40
2019-05-26T16:02:58.683Z,40.40
2019-05-26T16:05:28.143Z,39.30
2019-05-26T16:07:59.878Z,38.90
2019-05-26T16:10:29.245Z,37.50
2019-05-26T16:12:58.556Z,38.50
2019-05-26T16:15:27.898Z,38.30
2019-05-26T16:17:57.213Z,37.20
2019-05-26T16:20:26.531Z,37.40
2019-05-26T16:22:55.867Z,38.30
2019-05-26T16:25:25.261Z,38.80
2019-05-26T16:27:54.734Z,38.70
2019-05-26T16:30:24.242Z,39.50
2019-05-26T16:32:53.658Z,40.50
2019-05-26T16:35:22.978Z,41.10
2019-05-26T16:37:52.453Z,41.30
2019-05-26T16:40:21.910Z,42.00
2019-05-26T16:42:51.487Z,41.80
2019-05-26T16:45:21.105Z,41.40
2019-05-26T16:47:52.551Z,41.00
2019-05-26T16:50:21.669Z,41.60
2019-05-26T16:52:54.803Z,41.20
2019-05-26T16:55:24.206Z,41.50
2019-05-26T16:57:53.635Z,39.40
2019-05-26T17:00:23.231Z,39.10
2019-05-26T17:02:52.561Z,38.20
2019-05-26T17:05:21.952Z,37.80
2019-05-26T17:07:53.047Z,38.60
2019-05-26T17:10:25.487Z,39.30
2019-05-26T17:12:54.828Z,39.40
2019-05-26T17:15:24.237Z,40.20
2019-05-26T17:17:53.801Z,39.30
2019-05-26T17:20:25.154Z,38.90
2019-05-26T17:22:54.599Z,39.40
2019-05-26T17:25:23.943Z,39.50
2019-05-26T17:27:53.530Z,39.60
2019-05-26T17:30:26.103Z,39.80
2019-05-26T17:32:55.803Z,39.10
2019-05-26T17:35:25.269Z,38.80
2019-05-26T17:37:54.782Z,38.80
2019-05-26T17:40:24.354Z,40.20
2019-05-26T17:42:53.900Z,38.80
2019-05-26T17:45:23.492Z,37.50
2019-05-26T17:47:52.829Z,38.10
2019-05-26T17:50:22.360Z,39.30
2019-05-26T17:52:51.798Z,38.60
2019-05-26T17:55:21.268Z,39.40
2019-05-26T17:57:53.705Z,38.30
2019-05-26T18:00:23.474Z,38.40
2019-05-26T18:02:52.945Z,37.80
2019-05-26T18:05:22.278Z,38.50
2019-05-26T18:07:52.043Z,38.30
2019-05-26T18:10:21.494Z,39.40
2019-05-26T18:12:50.904Z,40.20
2019-05-26T18:15:20.434Z,41.60
2019-05-26T18:17:49.781Z,40.50
2019-05-26T18:20:19.932Z,40.00
2019-05-26T18:22:49.379Z,41.50
2019-05-26T18:25:18.918Z,41.30
2019-05-26T18:27:48.448Z,41.60
2019-05-26T18:30:18.183Z,42.20
2019-05-26T18:32:47.641Z,42.60
2019-05-26T18:35:17.195Z,42.60
2019-05-26T18:37:46.603Z,43.00
2019-05-26T18:40:21.711Z,42.80
2019-05-26T18:42:54.106Z,42.30
2019-05-26T18:45:23.432Z,42.90
2019-05-26T18:48:03.031Z,42.70
2019-05-26T18:50:27.716Z,44.20
2019-05-26T18:52:57.320Z,45.40
2019-05-26T18:55:26.670Z,46.60
2019-05-26T18:57:56.023Z,47.00
2019-05-26T19:00:30.954Z,48.10
2019-05-26T19:02:59.384Z,48.20
2019-05-26T19:05:33.621Z,48.60
2019-05-26T19:07:59.936Z,49.60
2019-05-26T19:10:29.436Z,50.80
2019-05-26T19:12:59.087Z,51.50
2019-05-26T19:15:28.698Z,53.00
2019-05-26T19:17:58.362Z,52.80
2019-05-26T19:20:36.276Z,53.10
2019-05-26T19:23:05.836Z,54.80
2019-05-26T19:25:35.616Z,55.50
2019-05-26T19:28:05.318Z,55.80
2019-05-26T19:30:34.649Z,57.30
2019-05-26T19:33:08.429Z,58.80
2019-05-26T19:35:37.770Z,58.80
2019-05-26T19:38:07.173Z,58.70
2019-05-26T19:40:47.117Z,59.10
2019-05-26T19:43:22.593Z,60.20
2019-05-26T19:45:54.884Z,60.10
2019-05-26T19:48:36.573Z,60.10
2019-05-26T19:51:02.193Z,60.70
2019-05-26T19:54:00.299Z,61.90
2019-05-26T19:56:39.618Z,61.60
2019-05-26T19:59:22.042Z,61.70
2019-05-26T20:01:45.669Z,61.10
2019-05-26T20:04:21.256Z,61.60
2019-05-26T20:06:54.181Z,61.80
2019-05-26T20:09:56.161Z,62.90
2019-05-26T20:13:06.747Z,62.80
2019-05-26T20:18:52.492Z,64.70
2019-05-26T20:21:29.204Z,65.10
2019-05-26T20:24:01.025Z,65.30
2019-05-26T20:26:33.489Z,65.30
2019-05-26T20:29:03.009Z,65.10
2019-05-26T20:31:44.924Z,66.20
2019-05-26T20:34:16.957Z,65.70
2019-05-26T20:36:46.525Z,67.30
2019-05-26T20:39:15.991Z,68.20
2019-05-26T20:41:45.306Z,67.70
2019-05-26T20:44:14.652Z,68.70
2019-05-26T20:46:44.002Z,68.80
2019-05-26T20:49:13.343Z,70.70
2019-05-26T20:51:42.681Z,69.30
2019-05-26T20:54:12.024Z,69.60
2019-05-26T20:56:41.416Z,70.00
2019-05-26T20:59:10.786Z,70.00
2019-05-26T21:01:40.107Z,70.80
2019-05-26T21:04:09.476Z,71.20
2019-05-26T21:06:41.519Z,71.70
2019-05-26T21:09:11.611Z,72.20
2019-05-26T21:11:41.064Z,72.80
2019-05-26T21:14:10.384Z,72.80
2019-05-26T21:16:39.801Z,73.60
2019-05-26T21:19:09.086Z,73.80
2019-05-26T21:21:38.429Z,74.10
2019-05-26T21:24:07.774Z,74.70
2019-05-26T21:26:37.092Z,74.70
2019-05-26T21:29:06.488Z,75.00
2019-05-26T21:31:35.821Z,74.70
2019-05-26T21:34:05.623Z,74.80
2019-05-26T21:36:35.022Z,74.90
2019-05-26T21:39:06.952Z,74.80
2019-05-26T21:41:36.295Z,75.30
2019-05-26T21:44:05.853Z,76.40
2019-05-26T21:46:35.247Z,76.50
2019-05-26T21:49:04.656Z,77.00
2019-05-26T21:51:33.993Z,76.70
2019-05-26T21:54:03.316Z,76.80
2019-05-26T21:56:32.670Z,77.10
2019-05-26T21:59:01.985Z,76.80
2019-05-26T22:01:31.395Z,77.80
2019-05-26T22:04:00.724Z,77.90
2019-05-26T22:06:30.123Z,78.50
2019-05-26T22:08:59.465Z,78.50
2019-05-26T22:11:28.796Z,78.30
2019-05-26T22:13:58.110Z,78.00
2019-05-26T22:16:27.469Z,74.00
2019-05-26T22:19:00.058Z,72.60
2019-05-26T22:21:27.997Z,72.70
2019-05-26T22:23:57.300Z,73.80
2019-05-26T22:26:26.651Z,74.80
2019-05-26T22:28:55.967Z,75.80
2019-05-26T22:31:25.326Z,76.10
2019-05-26T22:33:54.643Z,76.50
2019-05-26T22:36:23.976Z,76.90
2019-05-26T22:38:53.291Z,76.50
2019-05-26T22:41:22.633Z,76.90
2019-05-26T22:43:51.995Z,77.40
2019-05-26T22:46:21.327Z,77.30
2019-05-26T22:48:50.651Z,76.80
2019-05-26T22:51:19.991Z,76.90
2019-05-26T22:53:49.383Z,75.00
2019-05-26T22:56:18.827Z,75.10
2019-05-26T22:58:48.145Z,75.00
2019-05-26T23:01:17.542Z,75.60
2019-05-26T23:03:46.954Z,76.40
2019-05-26T23:06:16.344Z,74.40
2019-05-26T23:08:45.689Z,74.00
2019-05-26T23:11:15.006Z,73.80
2019-05-26T23:13:44.356Z,75.50
2019-05-26T23:16:13.760Z,76.30
2019-05-26T23:18:43.103Z,74.40
2019-05-26T23:21:12.426Z,73.90
2019-05-26T23:23:41.776Z,75.20
2019-05-26T23:26:11.103Z,77.20
2019-05-26T23:28:40.431Z,75.70
2019-05-26T23:31:09.817Z,76.30
2019-05-26T23:33:39.289Z,75.90
2019-05-26T23:36:08.674Z,73.60
2019-05-26T23:38:38.079Z,74.40
2019-05-26T23:41:07.426Z,74.90
2019-05-26T23:43:36.768Z,76.80
2019-05-26T23:46:06.156Z,77.70
2019-05-26T23:48:35.504Z,78.10
2019-05-26T23:51:04.820Z,78.50
2019-05-26T23:53:34.237Z,78.90
2019-05-26T23:56:03.616Z,78.90
2019-05-26T23:58:32.952Z,79.50
